sensor_id;sensor_type;location;lat;lon;timestamp;P1;durP1;ratioP1;P2;durP2;ratioP2
51048;SDS011;37084;55.228;36.450;2023-04-08T00:02:00;7.88;;;3.63;;
51048;SDS011;37084;55.228;36.450;2023-04-08T00:05:02;7.10;;;3.13;;
51048;SDS011;37084;55.228;36.450;2023-04-08T00:08:04;6.90;;;3.15;;
51048;SDS011;37084;55.228;36.450;2023-04-08T00:11:06;7.07;;;3.60;;
51048;SDS011;37084;55.228;36.450;2023-04-08T00:14:07;6.22;;;3.13;;
51048;SDS011;37084;55.228;36.450;2023-04-08T00:17:08;10.63;;;3.90;;
51048;SDS011;37084;55.228;36.450;2023-04-08T00:20:10;10.57;;;3.42;;
51048;SDS011;37084;55.228;36.450;2023-04-08T00:23:11;7.07;;;3.50;;
51048;SDS011;37084;55.228;36.450;2023-04-08T00:26:13;9.02;;;3.85;;
51048;SDS011;37084;55.228;36.450;2023-04-08T00:29:15;7.30;;;3.67;;
51048;SDS011;37084;55.228;36.450;2023-04-08T00:32:17;6.88;;;3.40;;
51048;SDS011;37084;55.228;36.450;2023-04-08T00:35:18;6.88;;;3.70;;
51048;SDS011;37084;55.228;36.450;2023-04-08T00:38:19;7.25;;;3.60;;
51048;SDS011;37084;55.228;36.450;2023-04-08T00:41:21;7.20;;;3.28;;
51048;SDS011;37084;55.228;36.450;2023-04-08T00:44:22;9.02;;;3.63;;
51048;SDS011;37084;55.228;36.450;2023-04-08T00:47:24;10.27;;;4.05;;
51048;SDS011;37084;55.228;36.450;2023-04-08T00:50:26;7.93;;;3.92;;
51048;SDS011;37084;55.228;36.450;2023-04-08T00:53:29;12.82;;;5.28;;
51048;SDS011;37084;55.228;36.450;2023-04-08T00:56:31;9.80;;;3.20;;
51048;SDS011;37084;55.228;36.450;2023-04-08T00:59:33;6.57;;;3.45;;
51048;SDS011;37084;55.228;36.450;2023-04-08T01:02:44;6.68;;;3.83;;
51048;SDS011;37084;55.228;36.450;2023-04-08T01:08:47;7.05;;;3.38;;
51048;SDS011;37084;55.228;36.450;2023-04-08T01:11:51;7.28;;;2.83;;
51048;SDS011;37084;55.228;36.450;2023-04-08T01:15:04;6.93;;;3.88;;
51048;SDS011;37084;55.228;36.450;2023-04-08T01:18:08;6.75;;;3.47;;
51048;SDS011;37084;55.228;36.450;2023-04-08T01:21:14;9.48;;;3.70;;
51048;SDS011;37084;55.228;36.450;2023-04-08T01:24:22;7.15;;;4.55;;
51048;SDS011;37084;55.228;36.450;2023-04-08T01:27:30;11.55;;;4.90;;
51048;SDS011;37084;55.228;36.450;2023-04-08T01:30:32;8.48;;;4.63;;
51048;SDS011;37084;55.228;36.450;2023-04-08T01:33:34;9.57;;;3.80;;
51048;SDS011;37084;55.228;36.450;2023-04-08T01:36:36;12.75;;;4.40;;
51048;SDS011;37084;55.228;36.450;2023-04-08T01:39:39;8.80;;;4.10;;
51048;SDS011;37084;55.228;36.450;2023-04-08T01:42:41;10.68;;;3.60;;
51048;SDS011;37084;55.228;36.450;2023-04-08T01:45:45;7.45;;;3.67;;
51048;SDS011;37084;55.228;36.450;2023-04-08T01:48:48;8.57;;;3.80;;
51048;SDS011;37084;55.228;36.450;2023-04-08T01:51:49;8.63;;;3.65;;
51048;SDS011;37084;55.228;36.450;2023-04-08T01:54:52;9.00;;;3.60;;
51048;SDS011;37084;55.228;36.450;2023-04-08T01:57:53;4.45;;;3.20;;
51048;SDS011;37084;55.228;36.450;2023-04-08T02:00:56;7.25;;;3.55;;
51048;SDS011;37084;55.228;36.450;2023-04-08T02:03:58;10.57;;;3.67;;
51048;SDS011;37084;55.228;36.450;2023-04-08T02:07:00;8.63;;;3.85;;
51048;SDS011;37084;55.228;36.450;2023-04-08T02:10:01;11.75;;;4.07;;
51048;SDS011;37084;55.228;36.450;2023-04-08T02:13:04;7.50;;;3.22;;
51048;SDS011;37084;55.228;36.450;2023-04-08T02:16:12;6.85;;;3.45;;
51048;SDS011;37084;55.228;36.450;2023-04-08T02:19:28;8.43;;;4.15;;
51048;SDS011;37084;55.228;36.450;2023-04-08T02:22:46;10.07;;;4.22;;
51048;SDS011;37084;55.228;36.450;2023-04-08T02:25:52;8.77;;;3.70;;
51048;SDS011;37084;55.228;36.450;2023-04-08T02:29:01;7.10;;;4.50;;
51048;SDS011;37084;55.228;36.450;2023-04-08T02:32:04;11.20;;;4.28;;
51048;SDS011;37084;55.228;36.450;2023-04-08T02:35:06;7.85;;;3.95;;
51048;SDS011;37084;55.228;36.450;2023-04-08T02:38:09;6.55;;;4.00;;
51048;SDS011;37084;55.228;36.450;2023-04-08T02:41:10;9.25;;;4.97;;
51048;SDS011;37084;55.228;36.450;2023-04-08T02:44:12;9.45;;;4.95;;
51048;SDS011;37084;55.228;36.450;2023-04-08T02:47:15;11.35;;;4.60;;
51048;SDS011;37084;55.228;36.450;2023-04-08T02:50:16;8.38;;;4.10;;
51048;SDS011;37084;55.228;36.450;2023-04-08T02:53:17;15.48;;;4.70;;
51048;SDS011;37084;55.228;36.450;2023-04-08T02:56:18;9.45;;;4.00;;
51048;SDS011;37084;55.228;36.450;2023-04-08T02:59:21;9.50;;;3.92;;
51048;SDS011;37084;55.228;36.450;2023-04-08T03:02:22;7.03;;;4.00;;
51048;SDS011;37084;55.228;36.450;2023-04-08T03:05:24;7.57;;;4.22;;
51048;SDS011;37084;55.228;36.450;2023-04-08T03:08:26;6.50;;;3.25;;
51048;SDS011;37084;55.228;36.450;2023-04-08T03:11:27;9.13;;;4.15;;
51048;SDS011;37084;55.228;36.450;2023-04-08T03:14:28;8.10;;;3.95;;
51048;SDS011;37084;55.228;36.450;2023-04-08T03:17:29;8.75;;;3.70;;
51048;SDS011;37084;55.228;36.450;2023-04-08T03:20:34;11.38;;;4.22;;
51048;SDS011;37084;55.228;36.450;2023-04-08T03:23:35;8.80;;;3.80;;
51048;SDS011;37084;55.228;36.450;2023-04-08T03:26:36;8.10;;;4.03;;
51048;SDS011;37084;55.228;36.450;2023-04-08T03:29:37;7.95;;;3.78;;
51048;SDS011;37084;55.228;36.450;2023-04-08T03:32:38;10.52;;;3.97;;
51048;SDS011;37084;55.228;36.450;2023-04-08T03:35:39;10.98;;;5.03;;
51048;SDS011;37084;55.228;36.450;2023-04-08T03:38:41;8.57;;;4.47;;
51048;SDS011;37084;55.228;36.450;2023-04-08T03:41:43;8.90;;;3.83;;
51048;SDS011;37084;55.228;36.450;2023-04-08T03:44:45;9.73;;;4.47;;
51048;SDS011;37084;55.228;36.450;2023-04-08T03:47:46;6.85;;;3.58;;
51048;SDS011;37084;55.228;36.450;2023-04-08T03:50:47;8.63;;;4.18;;
51048;SDS011;37084;55.228;36.450;2023-04-08T03:53:48;12.13;;;4.03;;
51048;SDS011;37084;55.228;36.450;2023-04-08T03:56:50;8.10;;;4.18;;
51048;SDS011;37084;55.228;36.450;2023-04-08T03:59:51;11.10;;;4.38;;
51048;SDS011;37084;55.228;36.450;2023-04-08T04:02:52;10.45;;;4.05;;
51048;SDS011;37084;55.228;36.450;2023-04-08T04:05:55;7.65;;;3.63;;
51048;SDS011;37084;55.228;36.450;2023-04-08T04:08:56;8.38;;;3.40;;
51048;SDS011;37084;55.228;36.450;2023-04-08T04:11:58;10.75;;;3.78;;
51048;SDS011;37084;55.228;36.450;2023-04-08T04:14:59;9.50;;;4.00;;
51048;SDS011;37084;55.228;36.450;2023-04-08T04:18:00;12.57;;;4.03;;
51048;SDS011;37084;55.228;36.450;2023-04-08T04:21:04;9.68;;;3.75;;
51048;SDS011;37084;55.228;36.450;2023-04-08T04:24:06;6.93;;;3.83;;
51048;SDS011;37084;55.228;36.450;2023-04-08T04:27:07;6.80;;;3.35;;
51048;SDS011;37084;55.228;36.450;2023-04-08T04:30:09;6.20;;;3.20;;
51048;SDS011;37084;55.228;36.450;2023-04-08T04:33:14;7.13;;;3.28;;
51048;SDS011;37084;55.228;36.450;2023-04-08T04:36:16;8.45;;;3.20;;
51048;SDS011;37084;55.228;36.450;2023-04-08T04:39:18;8.15;;;3.13;;
51048;SDS011;37084;55.228;36.450;2023-04-08T04:42:19;8.82;;;3.67;;
51048;SDS011;37084;55.228;36.450;2023-04-08T04:45:20;7.82;;;3.35;;
51048;SDS011;37084;55.228;36.450;2023-04-08T04:48:21;9.68;;;3.75;;
51048;SDS011;37084;55.228;36.450;2023-04-08T04:51:22;6.60;;;3.28;;
51048;SDS011;37084;55.228;36.450;2023-04-08T04:54:24;5.80;;;3.35;;
51048;SDS011;37084;55.228;36.450;2023-04-08T04:57:25;6.47;;;2.72;;
51048;SDS011;37084;55.228;36.450;2023-04-08T05:00:26;5.45;;;3.03;;
51048;SDS011;37084;55.228;36.450;2023-04-08T05:03:27;5.88;;;3.35;;
51048;SDS011;37084;55.228;36.450;2023-04-08T05:06:29;6.13;;;3.10;;
51048;SDS011;37084;55.228;36.450;2023-04-08T05:09:31;7.53;;;3.25;;
51048;SDS011;37084;55.228;36.450;2023-04-08T05:12:32;5.32;;;2.95;;
51048;SDS011;37084;55.228;36.450;2023-04-08T05:15:33;6.43;;;2.88;;
51048;SDS011;37084;55.228;36.450;2023-04-08T05:18:35;5.25;;;2.92;;
51048;SDS011;37084;55.228;36.450;2023-04-08T05:21:39;11.18;;;2.67;;
51048;SDS011;37084;55.228;36.450;2023-04-08T05:24:41;7.85;;;2.80;;
51048;SDS011;37084;55.228;36.450;2023-04-08T05:27:42;9.48;;;2.45;;
51048;SDS011;37084;55.228;36.450;2023-04-08T05:30:47;12.48;;;3.65;;
51048;SDS011;37084;55.228;36.450;2023-04-08T05:33:51;7.38;;;3.90;;
51048;SDS011;37084;55.228;36.450;2023-04-08T05:36:52;6.78;;;3.38;;
51048;SDS011;37084;55.228;36.450;2023-04-08T05:39:54;6.22;;;3.50;;
51048;SDS011;37084;55.228;36.450;2023-04-08T05:42:55;6.95;;;3.47;;
51048;SDS011;37084;55.228;36.450;2023-04-08T05:45:56;9.48;;;3.63;;
51048;SDS011;37084;55.228;36.450;2023-04-08T05:48:58;9.02;;;3.33;;
51048;SDS011;37084;55.228;36.450;2023-04-08T05:51:59;9.13;;;3.90;;
51048;SDS011;37084;55.228;36.450;2023-04-08T05:55:00;5.50;;;3.20;;
51048;SDS011;37084;55.228;36.450;2023-04-08T05:58:01;5.82;;;2.85;;
51048;SDS011;37084;55.228;36.450;2023-04-08T06:01:03;6.65;;;2.70;;
51048;SDS011;37084;55.228;36.450;2023-04-08T06:04:05;5.20;;;3.35;;
51048;SDS011;37084;55.228;36.450;2023-04-08T06:07:07;8.38;;;3.60;;
51048;SDS011;37084;55.228;36.450;2023-04-08T06:10:08;6.20;;;2.65;;
51048;SDS011;37084;55.228;36.450;2023-04-08T06:13:10;6.97;;;3.17;;
51048;SDS011;37084;55.228;36.450;2023-04-08T06:16:11;6.55;;;4.32;;
51048;SDS011;37084;55.228;36.450;2023-04-08T06:19:14;6.00;;;3.53;;
51048;SDS011;37084;55.228;36.450;2023-04-08T06:22:16;6.45;;;2.97;;
51048;SDS011;37084;55.228;36.450;2023-04-08T06:25:17;6.28;;;2.92;;
51048;SDS011;37084;55.228;36.450;2023-04-08T06:28:18;8.32;;;2.65;;
51048;SDS011;37084;55.228;36.450;2023-04-08T06:31:19;7.03;;;3.00;;
51048;SDS011;37084;55.228;36.450;2023-04-08T06:34:21;9.23;;;3.03;;
51048;SDS011;37084;55.228;36.450;2023-04-08T06:37:22;7.15;;;3.65;;
51048;SDS011;37084;55.228;36.450;2023-04-08T06:40:24;8.70;;;3.35;;
51048;SDS011;37084;55.228;36.450;2023-04-08T06:43:25;10.77;;;4.40;;
51048;SDS011;37084;55.228;36.450;2023-04-08T06:46:26;9.02;;;3.90;;
51048;SDS011;37084;55.228;36.450;2023-04-08T06:49:28;8.27;;;3.30;;
51048;SDS011;37084;55.228;36.450;2023-04-08T06:52:29;7.50;;;3.30;;
51048;SDS011;37084;55.228;36.450;2023-04-08T06:55:30;8.63;;;3.75;;
51048;SDS011;37084;55.228;36.450;2023-04-08T06:58:32;8.02;;;2.92;;
51048;SDS011;37084;55.228;36.450;2023-04-08T07:01:33;6.35;;;3.08;;
51048;SDS011;37084;55.228;36.450;2023-04-08T07:04:34;8.65;;;3.35;;
51048;SDS011;37084;55.228;36.450;2023-04-08T07:07:35;6.03;;;2.92;;
51048;SDS011;37084;55.228;36.450;2023-04-08T07:10:36;4.63;;;3.10;;
51048;SDS011;37084;55.228;36.450;2023-04-08T07:13:38;5.90;;;2.72;;
51048;SDS011;37084;55.228;36.450;2023-04-08T07:16:39;6.35;;;3.17;;
51048;SDS011;37084;55.228;36.450;2023-04-08T07:19:40;6.95;;;3.20;;
51048;SDS011;37084;55.228;36.450;2023-04-08T07:22:43;8.10;;;3.40;;
51048;SDS011;37084;55.228;36.450;2023-04-08T07:25:45;6.97;;;3.78;;
51048;SDS011;37084;55.228;36.450;2023-04-08T07:28:47;7.43;;;3.20;;
51048;SDS011;37084;55.228;36.450;2023-04-08T07:31:48;5.95;;;4.03;;
51048;SDS011;37084;55.228;36.450;2023-04-08T07:34:49;6.85;;;3.60;;
51048;SDS011;37084;55.228;36.450;2023-04-08T07:37:51;7.15;;;3.25;;
51048;SDS011;37084;55.228;36.450;2023-04-08T07:40:52;8.60;;;4.50;;
51048;SDS011;37084;55.228;36.450;2023-04-08T07:43:53;7.28;;;3.50;;
51048;SDS011;37084;55.228;36.450;2023-04-08T07:46:55;5.35;;;3.80;;
51048;SDS011;37084;55.228;36.450;2023-04-08T07:49:56;6.80;;;4.03;;
51048;SDS011;37084;55.228;36.450;2023-04-08T07:52:58;6.97;;;4.07;;
51048;SDS011;37084;55.228;36.450;2023-04-08T07:55:59;12.95;;;4.43;;
51048;SDS011;37084;55.228;36.450;2023-04-08T07:59:00;7.43;;;3.78;;
51048;SDS011;37084;55.228;36.450;2023-04-08T08:02:02;6.43;;;3.72;;
51048;SDS011;37084;55.228;36.450;2023-04-08T08:05:03;5.72;;;4.07;;
51048;SDS011;37084;55.228;36.450;2023-04-08T08:08:05;7.15;;;3.78;;
51048;SDS011;37084;55.228;36.450;2023-04-08T08:11:07;7.13;;;2.97;;
51048;SDS011;37084;55.228;36.450;2023-04-08T08:14:08;3.97;;;2.65;;
51048;SDS011;37084;55.228;36.450;2023-04-08T08:17:15;5.38;;;2.38;;
51048;SDS011;37084;55.228;36.450;2023-04-08T08:20:16;5.25;;;2.05;;
51048;SDS011;37084;55.228;36.450;2023-04-08T08:26:45;4.80;;;2.30;;
51048;SDS011;37084;55.228;36.450;2023-04-08T08:29:48;4.25;;;2.40;;
51048;SDS011;37084;55.228;36.450;2023-04-08T08:32:49;4.18;;;2.40;;
51048;SDS011;37084;55.228;36.450;2023-04-08T08:35:51;4.88;;;2.40;;
51048;SDS011;37084;55.228;36.450;2023-04-08T08:39:00;4.10;;;2.25;;
51048;SDS011;37084;55.228;36.450;2023-04-08T08:42:01;4.53;;;2.45;;
51048;SDS011;37084;55.228;36.450;2023-04-08T08:45:04;2.95;;;1.60;;
51048;SDS011;37084;55.228;36.450;2023-04-08T08:48:07;3.08;;;1.80;;
51048;SDS011;37084;55.228;36.450;2023-04-08T08:51:13;2.92;;;1.90;;
51048;SDS011;37084;55.228;36.450;2023-04-08T08:54:14;5.25;;;2.00;;
51048;SDS011;37084;55.228;36.450;2023-04-08T08:57:19;3.97;;;1.85;;
51048;SDS011;37084;55.228;36.450;2023-04-08T09:00:40;4.38;;;1.90;;
51048;SDS011;37084;55.228;36.450;2023-04-08T09:03:44;3.17;;;1.40;;
51048;SDS011;37084;55.228;36.450;2023-04-08T09:06:46;4.30;;;1.52;;
51048;SDS011;37084;55.228;36.450;2023-04-08T09:14:00;4.63;;;1.85;;
51048;SDS011;37084;55.228;36.450;2023-04-08T09:17:01;3.80;;;1.50;;
51048;SDS011;37084;55.228;36.450;2023-04-08T09:20:08;3.60;;;1.70;;
51048;SDS011;37084;55.228;36.450;2023-04-08T09:23:13;3.58;;;1.98;;
51048;SDS011;37084;55.228;36.450;2023-04-08T09:26:24;2.65;;;1.52;;
51048;SDS011;37084;55.228;36.450;2023-04-08T09:29:33;4.20;;;1.98;;
51048;SDS011;37084;55.228;36.450;2023-04-08T09:32:48;2.75;;;1.40;;
51048;SDS011;37084;55.228;36.450;2023-04-08T09:51:01;3.90;;;1.70;;
51048;SDS011;37084;55.228;36.450;2023-04-08T09:54:05;8.35;;;2.00;;
51048;SDS011;37084;55.228;36.450;2023-04-08T09:57:24;2.97;;;2.28;;
51048;SDS011;37084;55.228;36.450;2023-04-08T10:00:38;19.92;;;3.05;;
51048;SDS011;37084;55.228;36.450;2023-04-08T10:04:04;3.42;;;1.73;;
51048;SDS011;37084;55.228;36.450;2023-04-08T10:07:56;4.00;;;2.25;;
51048;SDS011;37084;55.228;36.450;2023-04-08T10:10:57;3.80;;;2.45;;
51048;SDS011;37084;55.228;36.450;2023-04-08T10:13:59;5.22;;;2.35;;
51048;SDS011;37084;55.228;36.450;2023-04-08T10:23:55;6.28;;;2.50;;
51048;SDS011;37084;55.228;36.450;2023-04-08T10:26:59;4.13;;;2.17;;
51048;SDS011;37084;55.228;36.450;2023-04-08T10:30:02;6.10;;;2.03;;
51048;SDS011;37084;55.228;36.450;2023-04-08T10:33:49;7.18;;;2.20;;
51048;SDS011;37084;55.228;36.450;2023-04-08T10:36:34;8.48;;;2.40;;
51048;SDS011;37084;55.228;36.450;2023-04-08T10:39:37;4.35;;;2.15;;
51048;SDS011;37084;55.228;36.450;2023-04-08T10:42:38;4.65;;;2.28;;
51048;SDS011;37084;55.228;36.450;2023-04-08T10:45:39;4.18;;;2.40;;
51048;SDS011;37084;55.228;36.450;2023-04-08T10:48:41;3.88;;;2.13;;
51048;SDS011;37084;55.228;36.450;2023-04-08T10:51:42;8.00;;;2.78;;
51048;SDS011;37084;55.228;36.450;2023-04-08T10:54:47;4.38;;;2.30;;
51048;SDS011;37084;55.228;36.450;2023-04-08T10:57:49;4.10;;;3.10;;
51048;SDS011;37084;55.228;36.450;2023-04-08T11:00:50;5.22;;;2.33;;
51048;SDS011;37084;55.228;36.450;2023-04-08T11:03:52;5.30;;;2.80;;
51048;SDS011;37084;55.228;36.450;2023-04-08T11:06:53;4.05;;;2.83;;
51048;SDS011;37084;55.228;36.450;2023-04-08T11:09:54;7.25;;;3.25;;
51048;SDS011;37084;55.228;36.450;2023-04-08T11:12:57;6.55;;;4.65;;
51048;SDS011;37084;55.228;36.450;2023-04-08T11:15:58;4.97;;;3.80;;
51048;SDS011;37084;55.228;36.450;2023-04-08T11:19:03;4.70;;;2.92;;
51048;SDS011;37084;55.228;36.450;2023-04-08T11:22:05;3.95;;;2.95;;
51048;SDS011;37084;55.228;36.450;2023-04-08T11:25:09;4.72;;;2.58;;
51048;SDS011;37084;55.228;36.450;2023-04-08T11:28:10;4.05;;;2.95;;
51048;SDS011;37084;55.228;36.450;2023-04-08T11:31:12;4.13;;;2.50;;
51048;SDS011;37084;55.228;36.450;2023-04-08T11:34:20;6.85;;;3.25;;
51048;SDS011;37084;55.228;36.450;2023-04-08T11:37:35;7.22;;;3.45;;
51048;SDS011;37084;55.228;36.450;2023-04-08T11:41:10;4.95;;;2.45;;
51048;SDS011;37084;55.228;36.450;2023-04-08T11:44:16;5.45;;;2.53;;
51048;SDS011;37084;55.228;36.450;2023-04-08T11:47:19;5.68;;;2.65;;
51048;SDS011;37084;55.228;36.450;2023-04-08T11:50:25;6.95;;;3.35;;
51048;SDS011;37084;55.228;36.450;2023-04-08T11:53:42;5.88;;;3.33;;
51048;SDS011;37084;55.228;36.450;2023-04-08T11:59:54;5.65;;;3.33;;
51048;SDS011;37084;55.228;36.450;2023-04-08T12:03:01;5.88;;;3.38;;
51048;SDS011;37084;55.228;36.450;2023-04-08T12:06:11;6.60;;;3.85;;
51048;SDS011;37084;55.228;36.450;2023-04-08T12:09:48;5.72;;;3.67;;
51048;SDS011;37084;55.228;36.450;2023-04-08T12:12:53;5.32;;;3.67;;
51048;SDS011;37084;55.228;36.450;2023-04-08T12:16:20;6.38;;;3.40;;
51048;SDS011;37084;55.228;36.450;2023-04-08T12:19:23;6.88;;;3.55;;
51048;SDS011;37084;55.228;36.450;2023-04-08T12:22:31;7.47;;;3.17;;
51048;SDS011;37084;55.228;36.450;2023-04-08T12:25:39;7.03;;;3.58;;
51048;SDS011;37084;55.228;36.450;2023-04-08T12:28:50;5.90;;;4.13;;
51048;SDS011;37084;55.228;36.450;2023-04-08T12:31:51;6.65;;;3.60;;
51048;SDS011;37084;55.228;36.450;2023-04-08T12:35:00;7.00;;;3.97;;
51048;SDS011;37084;55.228;36.450;2023-04-08T12:38:07;8.02;;;4.38;;
51048;SDS011;37084;55.228;36.450;2023-04-08T12:41:14;5.47;;;3.45;;
51048;SDS011;37084;55.228;36.450;2023-04-08T12:44:25;5.15;;;2.92;;
51048;SDS011;37084;55.228;36.450;2023-04-08T12:47:26;5.85;;;3.17;;
51048;SDS011;37084;55.228;36.450;2023-04-08T12:50:34;5.45;;;3.00;;
51048;SDS011;37084;55.228;36.450;2023-04-08T12:54:17;5.30;;;3.13;;
51048;SDS011;37084;55.228;36.450;2023-04-08T12:57:32;4.32;;;2.60;;
51048;SDS011;37084;55.228;36.450;2023-04-08T13:00:41;4.25;;;2.58;;
51048;SDS011;37084;55.228;36.450;2023-04-08T13:03:47;4.32;;;2.72;;
51048;SDS011;37084;55.228;36.450;2023-04-08T13:06:48;5.75;;;2.83;;
51048;SDS011;37084;55.228;36.450;2023-04-08T13:09:53;11.27;;;3.03;;
51048;SDS011;37084;55.228;36.450;2023-04-08T13:12:55;6.00;;;3.00;;
51048;SDS011;37084;55.228;36.450;2023-04-08T13:15:56;5.32;;;2.75;;
51048;SDS011;37084;55.228;36.450;2023-04-08T13:18:57;5.70;;;2.95;;
51048;SDS011;37084;55.228;36.450;2023-04-08T13:21:59;4.18;;;2.50;;
51048;SDS011;37084;55.228;36.450;2023-04-08T13:25:00;7.40;;;2.60;;
51048;SDS011;37084;55.228;36.450;2023-04-08T13:28:02;7.68;;;3.13;;
51048;SDS011;37084;55.228;36.450;2023-04-08T13:31:03;6.40;;;3.22;;
51048;SDS011;37084;55.228;36.450;2023-04-08T13:34:05;4.03;;;3.20;;
51048;SDS011;37084;55.228;36.450;2023-04-08T13:37:13;5.82;;;3.05;;
51048;SDS011;37084;55.228;36.450;2023-04-08T13:40:14;6.10;;;3.15;;
51048;SDS011;37084;55.228;36.450;2023-04-08T13:43:17;12.80;;;4.07;;
51048;SDS011;37084;55.228;36.450;2023-04-08T13:46:21;5.50;;;2.58;;
51048;SDS011;37084;55.228;36.450;2023-04-08T13:49:22;5.65;;;2.92;;
51048;SDS011;37084;55.228;36.450;2023-04-08T13:52:24;9.10;;;2.78;;
51048;SDS011;37084;55.228;36.450;2023-04-08T13:55:26;6.38;;;3.65;;
51048;SDS011;37084;55.228;36.450;2023-04-08T13:58:27;4.20;;;2.85;;
51048;SDS011;37084;55.228;36.450;2023-04-08T14:01:28;4.57;;;2.80;;
51048;SDS011;37084;55.228;36.450;2023-04-08T14:04:29;6.35;;;3.17;;
51048;SDS011;37084;55.228;36.450;2023-04-08T14:07:30;5.00;;;2.88;;
51048;SDS011;37084;55.228;36.450;2023-04-08T14:10:31;5.97;;;2.65;;
51048;SDS011;37084;55.228;36.450;2023-04-08T14:13:32;4.60;;;2.33;;
51048;SDS011;37084;55.228;36.450;2023-04-08T14:16:33;5.55;;;3.00;;
51048;SDS011;37084;55.228;36.450;2023-04-08T14:19:35;7.47;;;3.38;;
51048;SDS011;37084;55.228;36.450;2023-04-08T14:22:36;4.15;;;2.85;;
51048;SDS011;37084;55.228;36.450;2023-04-08T14:25:37;5.90;;;3.47;;
51048;SDS011;37084;55.228;36.450;2023-04-08T14:28:39;8.10;;;3.08;;
51048;SDS011;37084;55.228;36.450;2023-04-08T14:31:40;6.60;;;2.72;;
51048;SDS011;37084;55.228;36.450;2023-04-08T14:34:41;4.60;;;3.03;;
51048;SDS011;37084;55.228;36.450;2023-04-08T14:37:43;4.72;;;3.35;;
51048;SDS011;37084;55.228;36.450;2023-04-08T14:40:44;7.30;;;3.15;;
51048;SDS011;37084;55.228;36.450;2023-04-08T14:43:45;4.63;;;2.85;;
51048;SDS011;37084;55.228;36.450;2023-04-08T14:46:49;5.50;;;2.30;;
51048;SDS011;37084;55.228;36.450;2023-04-08T14:49:50;5.45;;;2.88;;
51048;SDS011;37084;55.228;36.450;2023-04-08T14:52:52;5.82;;;3.08;;
51048;SDS011;37084;55.228;36.450;2023-04-08T14:55:53;7.32;;;3.30;;
51048;SDS011;37084;55.228;36.450;2023-04-08T14:58:54;5.38;;;3.42;;
51048;SDS011;37084;55.228;36.450;2023-04-08T15:01:55;10.95;;;3.88;;
51048;SDS011;37084;55.228;36.450;2023-04-08T15:04:56;6.70;;;3.15;;
51048;SDS011;37084;55.228;36.450;2023-04-08T15:07:58;5.53;;;3.42;;
51048;SDS011;37084;55.228;36.450;2023-04-08T15:10:59;6.85;;;3.08;;
51048;SDS011;37084;55.228;36.450;2023-04-08T15:14:00;4.40;;;3.00;;
51048;SDS011;37084;55.228;36.450;2023-04-08T15:17:01;6.85;;;3.15;;
51048;SDS011;37084;55.228;36.450;2023-04-08T15:20:03;6.05;;;3.15;;
51048;SDS011;37084;55.228;36.450;2023-04-08T15:23:05;6.70;;;2.85;;
51048;SDS011;37084;55.228;36.450;2023-04-08T15:26:08;6.90;;;3.05;;
51048;SDS011;37084;55.228;36.450;2023-04-08T15:29:10;5.22;;;2.83;;
51048;SDS011;37084;55.228;36.450;2023-04-08T15:32:11;5.70;;;2.63;;
51048;SDS011;37084;55.228;36.450;2023-04-08T15:35:12;6.18;;;3.22;;
51048;SDS011;37084;55.228;36.450;2023-04-08T15:38:13;6.18;;;2.65;;
51048;SDS011;37084;55.228;36.450;2023-04-08T15:41:16;6.22;;;3.00;;
51048;SDS011;37084;55.228;36.450;2023-04-08T15:44:18;18.05;;;4.22;;
51048;SDS011;37084;55.228;36.450;2023-04-08T15:47:19;7.25;;;3.42;;
51048;SDS011;37084;55.228;36.450;2023-04-08T15:50:21;11.50;;;3.83;;
51048;SDS011;37084;55.228;36.450;2023-04-08T15:53:22;6.90;;;3.65;;
51048;SDS011;37084;55.228;36.450;2023-04-08T15:56:23;18.85;;;7.43;;
51048;SDS011;37084;55.228;36.450;2023-04-08T15:59:29;28.92;;;13.13;;
51048;SDS011;37084;55.228;36.450;2023-04-08T16:02:30;96.63;;;40.95;;
51048;SDS011;37084;55.228;36.450;2023-04-08T16:05:33;80.68;;;31.73;;
51048;SDS011;37084;55.228;36.450;2023-04-08T16:08:35;50.30;;;17.95;;
51048;SDS011;37084;55.228;36.450;2023-04-08T16:11:36;36.13;;;14.82;;
51048;SDS011;37084;55.228;36.450;2023-04-08T16:14:37;40.63;;;15.60;;
51048;SDS011;37084;55.228;36.450;2023-04-08T16:17:39;31.35;;;12.02;;
51048;SDS011;37084;55.228;36.450;2023-04-08T16:20:40;24.77;;;8.38;;
51048;SDS011;37084;55.228;36.450;2023-04-08T16:23:43;10.57;;;4.43;;
51048;SDS011;37084;55.228;36.450;2023-04-08T16:26:44;11.02;;;4.85;;
51048;SDS011;37084;55.228;36.450;2023-04-08T16:29:45;18.48;;;10.52;;
51048;SDS011;37084;55.228;36.450;2023-04-08T16:32:47;11.13;;;6.95;;
51048;SDS011;37084;55.228;36.450;2023-04-08T16:35:49;14.95;;;8.27;;
51048;SDS011;37084;55.228;36.450;2023-04-08T16:38:50;6.60;;;4.05;;
51048;SDS011;37084;55.228;36.450;2023-04-08T16:41:53;7.20;;;3.92;;
51048;SDS011;37084;55.228;36.450;2023-04-08T16:44:57;5.65;;;3.22;;
51048;SDS011;37084;55.228;36.450;2023-04-08T16:47:59;6.75;;;3.15;;
51048;SDS011;37084;55.228;36.450;2023-04-08T16:51:03;7.38;;;3.58;;
51048;SDS011;37084;55.228;36.450;2023-04-08T16:57:06;10.85;;;5.40;;
51048;SDS011;37084;55.228;36.450;2023-04-08T17:00:08;11.57;;;7.72;;
51048;SDS011;37084;55.228;36.450;2023-04-08T17:03:10;15.32;;;8.70;;
51048;SDS011;37084;55.228;36.450;2023-04-08T17:06:13;12.82;;;7.35;;
51048;SDS011;37084;55.228;36.450;2023-04-08T17:09:14;12.80;;;6.90;;
51048;SDS011;37084;55.228;36.450;2023-04-08T17:12:16;42.83;;;21.63;;
51048;SDS011;37084;55.228;36.450;2023-04-08T17:15:17;106.80;;;61.53;;
51048;SDS011;37084;55.228;36.450;2023-04-08T17:18:18;59.45;;;33.35;;
51048;SDS011;37084;55.228;36.450;2023-04-08T17:21:20;15.02;;;8.50;;
51048;SDS011;37084;55.228;36.450;2023-04-08T17:24:22;12.65;;;6.10;;
51048;SDS011;37084;55.228;36.450;2023-04-08T17:27:23;19.40;;;10.70;;
51048;SDS011;37084;55.228;36.450;2023-04-08T17:30:25;99.47;;;51.40;;
51048;SDS011;37084;55.228;36.450;2023-04-08T17:33:26;17.92;;;9.82;;
51048;SDS011;37084;55.228;36.450;2023-04-08T17:36:28;14.85;;;7.85;;
51048;SDS011;37084;55.228;36.450;2023-04-08T17:39:29;11.40;;;6.80;;
51048;SDS011;37084;55.228;36.450;2023-04-08T17:42:31;9.45;;;5.93;;
51048;SDS011;37084;55.228;36.450;2023-04-08T17:45:32;8.73;;;4.00;;
51048;SDS011;37084;55.228;36.450;2023-04-08T17:48:33;6.22;;;3.38;;
51048;SDS011;37084;55.228;36.450;2023-04-08T17:51:35;7.70;;;3.10;;
51048;SDS011;37084;55.228;36.450;2023-04-08T17:54:36;33.55;;;18.38;;
51048;SDS011;37084;55.228;36.450;2023-04-08T17:57:37;15.70;;;9.75;;
51048;SDS011;37084;55.228;36.450;2023-04-08T18:00:38;9.30;;;4.93;;
51048;SDS011;37084;55.228;36.450;2023-04-08T18:03:40;12.75;;;6.07;;
51048;SDS011;37084;55.228;36.450;2023-04-08T18:06:41;9.80;;;5.00;;
51048;SDS011;37084;55.228;36.450;2023-04-08T18:09:43;8.02;;;4.22;;
51048;SDS011;37084;55.228;36.450;2023-04-08T18:12:45;7.80;;;4.13;;
51048;SDS011;37084;55.228;36.450;2023-04-08T18:15:46;7.78;;;3.75;;
51048;SDS011;37084;55.228;36.450;2023-04-08T18:18:48;9.65;;;6.18;;
51048;SDS011;37084;55.228;36.450;2023-04-08T18:21:49;17.15;;;8.63;;
51048;SDS011;37084;55.228;36.450;2023-04-08T18:24:50;29.40;;;14.00;;
51048;SDS011;37084;55.228;36.450;2023-04-08T18:27:51;25.90;;;12.68;;
51048;SDS011;37084;55.228;36.450;2023-04-08T18:30:52;18.05;;;8.90;;
51048;SDS011;37084;55.228;36.450;2023-04-08T18:33:54;13.10;;;6.22;;
51048;SDS011;37084;55.228;36.450;2023-04-08T18:36:55;14.43;;;6.60;;
51048;SDS011;37084;55.228;36.450;2023-04-08T18:39:56;14.38;;;6.85;;
51048;SDS011;37084;55.228;36.450;2023-04-08T18:42:59;9.02;;;4.60;;